createdAt,value
2022-12-03T00:01:05.667Z,-10.77
2022-12-03T00:03:36.181Z,-10.79
2022-12-03T00:06:05.123Z,-10.77
2022-12-03T00:08:35.145Z,-10.71
2022-12-03T00:11:05.279Z,-10.83
2022-12-03T00:13:33.800Z,-11.02
2022-12-03T00:16:02.551Z,-11.16
2022-12-03T00:18:31.471Z,-11.24
2022-12-03T00:21:00.005Z,-11.23
2022-12-03T00:23:28.603Z,-11.09
2022-12-03T00:25:57.142Z,-11.15
2022-12-03T00:28:27.214Z,-11.07
2022-12-03T00:30:55.821Z,-10.94
2022-12-03T00:33:25.636Z,-10.92
2022-12-03T00:35:54.160Z,-10.65
2022-12-03T00:38:22.655Z,-10.51
2022-12-03T00:40:51.703Z,-10.72
2022-12-03T00:43:20.135Z,-10.83
2022-12-03T00:45:50.249Z,-10.60
2022-12-03T00:48:18.821Z,-10.74
2022-12-03T00:50:47.312Z,-10.63
2022-12-03T00:53:15.988Z,-10.47
2022-12-03T00:55:44.478Z,-10.57
2022-12-03T00:58:12.959Z,-10.52
2022-12-03T01:00:41.443Z,-10.65
2022-12-03T01:03:11.421Z,-10.66
2022-12-03T01:05:40.499Z,-10.66
2022-12-03T01:08:09.176Z,-10.42
2022-12-03T01:10:37.836Z,-10.44
2022-12-03T01:13:06.520Z,-10.26
2022-12-03T01:15:35.031Z,-10.24
2022-12-03T01:18:03.622Z,-10.08
2022-12-03T01:20:33.864Z,-10.13
2022-12-03T01:23:02.359Z,-10.28
2022-12-03T01:25:31.003Z,-10.12
2022-12-03T01:27:59.464Z,-10.12
2022-12-03T01:30:28.020Z,-10.07
2022-12-03T01:32:55.574Z,-9.94
2022-12-03T01:35:24.263Z,-10.04
2022-12-03T01:37:54.577Z,-10.04
2022-12-03T01:40:23.978Z,-10.13
2022-12-03T01:42:52.570Z,-10.21
2022-12-03T01:45:25.094Z,-10.21
2022-12-03T01:47:53.710Z,-10.19
2022-12-03T01:50:27.423Z,-10.22
2022-12-03T01:52:59.818Z,-10.39
2022-12-03T01:55:28.928Z,-10.31
2022-12-03T01:58:00.472Z,-10.17
2022-12-03T02:00:30.472Z,-10.35
2022-12-03T02:03:01.705Z,-10.54
2022-12-03T02:05:32.180Z,-10.44
2022-12-03T02:08:04.291Z,-10.15
2022-12-03T02:10:37.383Z,-10.38
2022-12-03T02:13:09.001Z,-10.31
2022-12-03T02:15:39.492Z,-10.61
2022-12-03T02:18:09.553Z,-10.32
2022-12-03T02:20:52.141Z,-10.45
2022-12-03T02:23:30.950Z,-10.18
2022-12-03T02:26:01.109Z,-10.10
2022-12-03T02:28:29.715Z,-10.30
2022-12-03T02:30:58.423Z,-10.22
2022-12-03T02:33:27.151Z,-10.25
2022-12-03T02:36:00.413Z,-10.24
2022-12-03T02:38:34.159Z,-10.39
2022-12-03T02:41:07.901Z,-10.49
2022-12-03T02:43:35.833Z,-10.56
2022-12-03T02:46:05.926Z,-10.56
2022-12-03T02:48:37.020Z,-10.70
2022-12-03T02:51:08.296Z,-10.70
2022-12-03T02:53:42.562Z,-10.67
2022-12-03T02:56:15.585Z,-10.55
2022-12-03T02:58:45.323Z,-10.56
2022-12-03T03:01:15.595Z,-10.66
2022-12-03T03:03:46.306Z,-10.53
2022-12-03T03:06:16.951Z,-10.50
2022-12-03T03:08:46.047Z,-10.45
2022-12-03T03:11:16.438Z,-10.54
2022-12-03T03:13:45.785Z,-10.63
2022-12-03T03:16:14.438Z,-10.78
2022-12-03T03:18:43.421Z,-10.52
2022-12-03T03:21:12.080Z,-10.42
2022-12-03T03:23:40.665Z,-10.37
2022-12-03T03:26:11.144Z,-10.40
2022-12-03T03:28:44.971Z,-10.48
2022-12-03T03:31:15.610Z,-10.27
2022-12-03T03:33:47.213Z,-10.20
2022-12-03T03:36:17.488Z,-10.01
2022-12-03T03:38:46.234Z,-10.18
2022-12-03T03:41:16.446Z,-10.15
2022-12-03T03:43:48.969Z,-10.18
2022-12-03T03:46:19.057Z,-10.46
2022-12-03T03:48:49.681Z,-10.32
2022-12-03T03:51:20.422Z,-10.10
2022-12-03T03:53:50.504Z,-10.29
2022-12-03T03:56:20.818Z,-10.11
2022-12-03T03:58:50.910Z,-10.63
2022-12-03T04:01:23.039Z,-10.28
2022-12-03T04:03:56.134Z,-10.45
2022-12-03T04:06:28.265Z,-10.57
2022-12-03T04:09:00.743Z,-10.64
2022-12-03T04:11:49.925Z,-10.43
2022-12-03T04:14:26.002Z,-10.63
2022-12-03T04:16:57.842Z,-11.11
2022-12-03T04:19:29.659Z,-11.20
2022-12-03T04:22:19.528Z,-11.41
2022-12-03T04:24:51.542Z,-11.31
2022-12-03T04:27:38.627Z,-11.19
2022-12-03T04:30:13.407Z,-11.01
2022-12-03T04:33:02.718Z,-11.22
2022-12-03T04:35:49.350Z,-11.15
2022-12-03T04:38:19.217Z,-11.20
2022-12-03T04:41:04.496Z,-11.25
2022-12-03T04:43:56.114Z,-11.15
2022-12-03T04:46:29.153Z,-11.10
2022-12-03T04:49:03.517Z,-11.21
2022-12-03T04:51:35.184Z,-11.18
2022-12-03T04:54:12.819Z,-11.06
2022-12-03T04:56:44.667Z,-10.89
2022-12-03T04:59:16.535Z,-10.68
2022-12-03T05:01:49.914Z,-10.94
2022-12-03T05:04:25.864Z,-10.89
2022-12-03T05:06:57.948Z,-10.93
2022-12-03T05:09:36.763Z,-10.95
2022-12-03T05:12:09.091Z,-11.09
2022-12-03T05:14:43.681Z,-11.04
2022-12-03T05:17:17.050Z,-11.06
2022-12-03T05:20:06.180Z,-10.83
2022-12-03T05:22:40.488Z,-10.80
2022-12-03T05:25:14.856Z,-10.75
2022-12-03T05:27:46.803Z,-10.90
2022-12-03T05:30:19.241Z,-10.82
2022-12-03T05:32:55.387Z,-10.94
2022-12-03T05:35:30.002Z,-10.95
2022-12-03T05:38:01.629Z,-10.89
2022-12-03T05:40:33.778Z,-10.83
2022-12-03T05:43:07.809Z,-10.87
2022-12-03T05:45:46.102Z,-10.88
2022-12-03T05:48:21.836Z,-10.82
2022-12-03T05:50:54.454Z,-10.83
2022-12-03T05:53:29.716Z,-10.93
2022-12-03T05:56:01.697Z,-10.87
2022-12-03T05:58:36.586Z,-10.91
2022-12-03T06:01:08.780Z,-10.92
2022-12-03T06:03:45.245Z,-10.87
2022-12-03T06:06:20.550Z,-10.79
2022-12-03T06:08:56.323Z,-11.01
2022-12-03T06:11:32.676Z,-10.98
2022-12-03T06:14:12.061Z,-10.87
2022-12-03T06:16:44.082Z,-10.93
2022-12-03T06:19:20.469Z,-10.83
2022-12-03T06:21:52.225Z,-10.93
2022-12-03T06:24:24.157Z,-10.85
2022-12-03T06:26:54.940Z,-11.01
2022-12-03T06:29:26.795Z,-11.00
2022-12-03T06:32:02.828Z,-11.02
2022-12-03T06:34:37.221Z,-10.96
2022-12-03T06:37:14.777Z,-10.71
2022-12-03T06:39:43.900Z,-10.90
2022-12-03T06:42:12.816Z,-10.88
2022-12-03T06:44:47.846Z,-10.86
2022-12-03T06:47:19.909Z,-10.92
2022-12-03T06:49:50.279Z,-10.76
2022-12-03T06:52:24.649Z,-10.80
2022-12-03T06:54:53.735Z,-10.81
2022-12-03T06:57:29.535Z,-10.72
2022-12-03T07:00:01.209Z,-10.62
2022-12-03T07:02:35.720Z,-10.63
2022-12-03T07:05:09.629Z,-10.63
2022-12-03T07:07:44.453Z,-10.68
2022-12-03T07:10:18.172Z,-10.59
2022-12-03T07:12:54.243Z,-10.47
2022-12-03T07:15:31.241Z,-10.53
2022-12-03T07:18:00.217Z,-10.68
2022-12-03T07:21:03.181Z,-10.73
2022-12-03T07:23:52.281Z,-10.78
2022-12-03T07:26:21.841Z,-10.64
2022-12-03T07:28:52.999Z,-10.62
2022-12-03T07:31:31.190Z,-10.63
2022-12-03T07:34:19.261Z,-10.61
2022-12-03T07:36:55.498Z,-10.47
2022-12-03T07:39:53.760Z,-10.60
2022-12-03T07:42:29.159Z,-10.54
2022-12-03T07:45:05.087Z,-10.57
2022-12-03T07:47:34.180Z,-10.57
2022-12-03T07:50:04.801Z,-10.32
2022-12-03T07:52:47.989Z,-10.46
2022-12-03T07:55:22.662Z,-10.68
2022-12-03T07:57:54.522Z,-10.63
2022-12-03T08:00:30.767Z,-10.52
2022-12-03T08:03:05.074Z,-10.46
2022-12-03T08:05:43.805Z,-10.57
2022-12-03T08:08:22.871Z,-10.51
2022-12-03T08:10:51.835Z,-10.70
2022-12-03T08:13:23.817Z,-10.60
2022-12-03T08:16:00.267Z,-10.43
2022-12-03T08:18:35.691Z,-10.20
2022-12-03T08:21:09.191Z,-10.16
2022-12-03T08:23:42.998Z,-10.33
2022-12-03T08:26:22.074Z,-10.20
2022-12-03T08:28:54.221Z,-9.87
2022-12-03T08:31:33.234Z,-10.13
2022-12-03T08:34:27.250Z,-10.20
2022-12-03T08:37:11.506Z,-10.33
2022-12-03T08:39:46.506Z,-10.29
2022-12-03T08:42:41.298Z,-10.18
2022-12-03T08:45:40.135Z,-10.01
2022-12-03T08:48:37.405Z,-9.89
2022-12-03T08:51:14.337Z,-9.95
2022-12-03T08:53:50.917Z,-9.85
2022-12-03T08:56:29.323Z,-10.04
2022-12-03T08:59:06.536Z,-9.80
2022-12-03T09:01:43.788Z,-9.77
2022-12-03T09:04:33.137Z,-9.53
2022-12-03T09:07:16.311Z,-9.63
2022-12-03T09:09:48.059Z,-9.53
2022-12-03T09:12:21.560Z,-9.71
2022-12-03T09:14:50.465Z,-9.43
2022-12-03T09:17:25.915Z,-9.26
2022-12-03T09:19:59.425Z,-9.40
2022-12-03T09:22:37.032Z,-9.10
2022-12-03T09:25:13.901Z,-9.33
2022-12-03T09:27:47.760Z,-8.90
2022-12-03T09:30:21.942Z,-8.94
2022-12-03T09:32:56.796Z,-8.86
2022-12-03T09:35:34.316Z,-9.11
2022-12-03T09:38:23.422Z,-9.16
2022-12-03T09:40:58.132Z,-9.21
2022-12-03T09:44:02.875Z,-9.12
2022-12-03T09:46:26.933Z,-9.41
2022-12-03T09:48:58.849Z,-9.49
2022-12-03T09:51:37.922Z,-9.49
2022-12-03T09:54:11.866Z,-9.34
2022-12-03T09:56:40.726Z,-9.38
2022-12-03T09:59:22.203Z,-9.46
2022-12-03T10:01:54.201Z,-9.40
2022-12-03T10:04:32.108Z,-9.07
2022-12-03T10:07:09.550Z,-9.09
2022-12-03T10:09:44.469Z,-8.80
2022-12-03T10:12:22.623Z,-8.70
2022-12-03T10:14:54.074Z,-8.64
2022-12-03T10:17:34.125Z,-8.75
2022-12-03T10:20:18.661Z,-8.77
2022-12-03T10:22:55.963Z,-8.42
2022-12-03T10:25:29.306Z,-8.37
2022-12-03T10:28:06.585Z,-8.53
2022-12-03T10:30:57.728Z,-8.37
2022-12-03T10:33:34.781Z,-8.59
2022-12-03T10:36:22.242Z,-8.80
2022-12-03T10:39:14.672Z,-8.63
2022-12-03T10:41:44.739Z,-8.61
2022-12-03T10:44:17.193Z,-8.47
2022-12-03T10:47:06.092Z,-8.20
2022-12-03T10:49:35.106Z,-8.56
2022-12-03T10:52:03.910Z,-8.38
2022-12-03T10:54:34.887Z,-8.54
2022-12-03T10:57:05.146Z,-8.47
2022-12-03T10:59:35.346Z,-8.44
2022-12-03T11:02:12.393Z,-8.55
2022-12-03T11:04:42.186Z,-8.53
2022-12-03T11:07:16.466Z,-8.38
2022-12-03T11:09:46.751Z,-8.34
2022-12-03T11:12:22.255Z,-8.20
2022-12-03T11:15:10.486Z,-8.21
2022-12-03T11:17:49.117Z,-8.25
2022-12-03T11:21:08.180Z,-8.31
2022-12-03T11:24:18.727Z,-8.04
2022-12-03T11:27:17.320Z,-8.16
2022-12-03T11:29:52.346Z,-8.12
2022-12-03T11:33:09.414Z,-8.03
2022-12-03T11:36:15.585Z,-7.97
2022-12-03T11:38:56.138Z,-8.16
2022-12-03T11:41:27.795Z,-7.92
2022-12-03T11:44:29.194Z,-7.87
2022-12-03T11:47:00.190Z,-8.17
2022-12-03T11:49:38.874Z,-8.02
2022-12-03T11:52:25.301Z,-7.89
2022-12-03T11:54:57.922Z,-8.12
2022-12-03T11:57:36.257Z,-8.17
2022-12-03T12:00:19.542Z,-8.21
2022-12-03T12:02:48.883Z,-8.15
2022-12-03T12:05:32.534Z,-8.15
2022-12-03T12:08:03.791Z,-8.01
2022-12-03T12:10:49.613Z,-7.76
2022-12-03T12:13:55.830Z,-7.85
2022-12-03T12:16:43.353Z,-8.00
2022-12-03T12:19:36.075Z,-7.97
2022-12-03T12:22:29.796Z,-8.03
2022-12-03T12:25:01.455Z,-7.97
2022-12-03T12:27:37.646Z,-7.84
2022-12-03T12:30:23.524Z,-7.65
2022-12-03T12:32:54.345Z,-7.86
2022-12-03T12:35:24.735Z,-7.71
2022-12-03T12:37:59.677Z,-7.90
2022-12-03T12:40:32.513Z,-7.82
2022-12-03T12:43:10.058Z,-7.49
2022-12-03T12:45:43.250Z,-7.32
2022-12-03T12:48:18.489Z,-7.42
2022-12-03T12:50:49.459Z,-7.32
2022-12-03T12:53:21.746Z,-7.09
2022-12-03T12:55:57.601Z,-7.07
2022-12-03T12:58:32.169Z,-7.19
2022-12-03T13:01:19.153Z,-7.09
2022-12-03T13:03:54.547Z,-7.14
2022-12-03T13:06:29.241Z,-7.24
2022-12-03T13:09:01.530Z,-7.13
2022-12-03T13:11:41.488Z,-7.31
2022-12-03T13:14:20.163Z,-7.24
2022-12-03T13:16:50.302Z,-7.38
2022-12-03T13:19:26.941Z,-7.28
2022-12-03T13:22:00.748Z,-7.42
2022-12-03T13:24:33.956Z,-7.50
2022-12-03T13:27:25.932Z,-7.54
2022-12-03T13:30:01.719Z,-7.52
2022-12-03T13:32:35.848Z,-7.52
2022-12-03T13:35:08.250Z,-7.41
2022-12-03T13:37:43.149Z,-7.35
2022-12-03T13:40:27.796Z,-7.40
2022-12-03T13:43:04.449Z,-7.31
2022-12-03T13:45:42.460Z,-7.29
2022-12-03T13:48:23.302Z,-7.27
2022-12-03T13:50:56.234Z,-7.38
2022-12-03T13:53:31.452Z,-7.45
2022-12-03T13:56:35.365Z,-7.38
2022-12-03T13:59:07.025Z,-7.10
2022-12-03T14:01:36.553Z,-7.26
2022-12-03T14:04:08.707Z,-7.44
2022-12-03T14:06:39.451Z,-7.50
2022-12-03T14:09:11.812Z,-7.34
2022-12-03T14:11:59.529Z,-7.35
2022-12-03T14:14:36.330Z,-7.24
2022-12-03T14:17:12.191Z,-7.20
2022-12-03T14:19:46.146Z,-7.27
2022-12-03T14:22:18.252Z,-7.43
2022-12-03T14:24:50.046Z,-7.43
2022-12-03T14:27:20.845Z,-7.49
2022-12-03T14:30:00.263Z,-7.47
2022-12-03T14:32:35.003Z,-7.43
2022-12-03T14:35:10.260Z,-7.40
2022-12-03T14:37:43.309Z,-7.20
2022-12-03T14:40:21.022Z,-7.32
2022-12-03T14:42:53.233Z,-7.24
2022-12-03T14:45:28.861Z,-7.32
2022-12-03T14:48:02.732Z,-7.29
2022-12-03T14:50:33.805Z,-7.35
2022-12-03T14:53:06.769Z,-7.37
2022-12-03T14:55:36.409Z,-7.40
2022-12-03T14:58:05.893Z,-7.49
2022-12-03T15:00:39.282Z,-7.37
2022-12-03T15:03:09.016Z,-7.35
2022-12-03T15:05:37.815Z,-7.35
2022-12-03T15:08:13.905Z,-7.36
2022-12-03T15:10:48.572Z,-7.12
2022-12-03T15:13:17.635Z,-7.37
2022-12-03T15:15:49.864Z,-7.41
2022-12-03T15:18:18.869Z,-7.31
2022-12-03T15:20:53.513Z,-7.26
2022-12-03T15:23:27.973Z,-7.28
2022-12-03T15:26:00.071Z,-7.26
2022-12-03T15:28:37.115Z,-7.30
2022-12-03T15:31:18.870Z,-7.23
2022-12-03T15:33:57.970Z,-7.22
2022-12-03T15:36:35.302Z,-7.24
2022-12-03T15:39:07.124Z,-7.29
2022-12-03T15:41:37.372Z,-7.37
2022-12-03T15:44:08.365Z,-7.37
2022-12-03T15:46:43.065Z,-7.35
2022-12-03T15:49:15.705Z,-7.38
2022-12-03T15:51:47.254Z,-7.42
2022-12-03T15:54:17.807Z,-7.43
2022-12-03T15:56:47.280Z,-7.45
2022-12-03T15:59:16.635Z,-7.27
2022-12-03T16:01:50.513Z,-7.21
2022-12-03T16:04:21.372Z,-7.23
2022-12-03T16:06:50.317Z,-7.33
2022-12-03T16:09:26.929Z,-7.31
2022-12-03T16:11:57.692Z,-7.46
2022-12-03T16:14:32.502Z,-7.43
2022-12-03T16:17:14.146Z,-7.31
2022-12-03T16:19:45.307Z,-7.25
2022-12-03T16:22:20.649Z,-7.24
2022-12-03T16:24:50.491Z,-7.26
2022-12-03T16:27:25.424Z,-7.27
2022-12-03T16:30:00.468Z,-7.06
2022-12-03T16:32:31.598Z,-7.23
2022-12-03T16:35:04.455Z,-7.17
2022-12-03T16:37:36.415Z,-7.16
2022-12-03T16:40:05.509Z,-7.01
2022-12-03T16:42:34.220Z,-7.05
2022-12-03T16:45:23.835Z,-7.09
2022-12-03T16:47:59.568Z,-7.02
2022-12-03T16:50:30.112Z,-6.93
2022-12-03T16:53:01.679Z,-7.10
2022-12-03T16:55:34.502Z,-6.95
2022-12-03T16:58:05.516Z,-6.87
2022-12-03T17:00:34.610Z,-6.82
2022-12-03T17:03:07.708Z,-6.91
2022-12-03T17:05:36.488Z,-6.83
2022-12-03T17:08:05.147Z,-6.87
2022-12-03T17:10:33.780Z,-6.89
2022-12-03T17:13:10.544Z,-6.80
2022-12-03T17:15:39.759Z,-6.97
2022-12-03T17:18:10.193Z,-6.86
2022-12-03T17:20:39.232Z,-6.81
2022-12-03T17:23:08.389Z,-7.09
2022-12-03T17:25:36.969Z,-6.87
2022-12-03T17:28:05.861Z,-6.99
2022-12-03T17:30:34.415Z,-7.12
2022-12-03T17:33:03.579Z,-6.96
2022-12-03T17:35:33.657Z,-7.02
2022-12-03T17:38:02.753Z,-6.82
2022-12-03T17:40:31.418Z,-6.91
2022-12-03T17:42:59.907Z,-7.00
2022-12-03T17:45:28.531Z,-7.11
2022-12-03T17:47:57.130Z,-7.03
2022-12-03T17:50:26.973Z,-6.98
2022-12-03T17:52:57.171Z,-6.89
2022-12-03T17:55:34.634Z,-6.94
2022-12-03T17:58:04.786Z,-6.75
2022-12-03T18:00:34.691Z,-6.62
2022-12-03T18:03:03.217Z,-6.78
2022-12-03T18:05:31.798Z,-6.58
2022-12-03T18:08:02.150Z,-6.74
2022-12-03T18:10:30.758Z,-6.78
2022-12-03T18:13:02.010Z,-6.67
2022-12-03T18:15:31.095Z,-6.71
2022-12-03T18:17:59.744Z,-6.75
2022-12-03T18:20:28.320Z,-6.66
2022-12-03T18:22:57.241Z,-6.88
2022-12-03T18:25:28.538Z,-6.55
2022-12-03T18:27:57.314Z,-6.67
2022-12-03T18:30:25.896Z,-6.43
2022-12-03T18:32:55.675Z,-6.46
2022-12-03T18:35:24.320Z,-6.48
2022-12-03T18:37:53.178Z,-6.41
2022-12-03T18:40:25.148Z,-6.54
2022-12-03T18:42:57.398Z,-6.44
2022-12-03T18:45:26.039Z,-6.55
2022-12-03T18:47:55.898Z,-6.48
2022-12-03T18:50:24.722Z,-6.37
2022-12-03T18:52:53.628Z,-6.51
2022-12-03T18:55:26.770Z,-6.46
2022-12-03T18:57:58.282Z,-6.41
2022-12-03T19:00:33.282Z,-6.23
2022-12-03T19:03:03.932Z,-6.17
2022-12-03T19:05:37.562Z,-6.25
2022-12-03T19:08:14.841Z,-6.37
2022-12-03T19:10:46.064Z,-6.28
2022-12-03T19:13:18.512Z,-6.52
2022-12-03T19:15:54.416Z,-6.38
2022-12-03T19:18:26.226Z,-6.27
2022-12-03T19:20:55.628Z,-6.29
2022-12-03T19:23:24.545Z,-6.24
2022-12-03T19:25:59.646Z,-6.31
2022-12-03T19:28:31.106Z,-6.41
2022-12-03T19:31:04.907Z,-6.40
2022-12-03T19:33:44.310Z,-6.37
2022-12-03T19:36:22.302Z,-6.29
2022-12-03T19:38:57.183Z,-6.57
2022-12-03T19:41:30.828Z,-6.21
2022-12-03T19:44:05.082Z,-6.26
2022-12-03T19:46:37.290Z,-6.33
2022-12-03T19:49:06.216Z,-6.38
2022-12-03T19:51:35.904Z,-6.23
2022-12-03T19:54:06.497Z,-6.23
2022-12-03T19:56:36.408Z,-6.38
2022-12-03T19:59:07.148Z,-6.38
2022-12-03T20:01:40.999Z,-6.20
2022-12-03T20:04:18.372Z,-6.44
2022-12-03T20:06:48.872Z,-6.18
2022-12-03T20:09:22.807Z,-6.37
2022-12-03T20:11:57.086Z,-6.46
2022-12-03T20:14:31.449Z,-6.61
2022-12-03T20:17:01.162Z,-6.44
2022-12-03T20:19:35.000Z,-6.60
2022-12-03T20:22:04.576Z,-6.74
2022-12-03T20:24:37.949Z,-6.74
2022-12-03T20:27:23.144Z,-6.65
2022-12-03T20:29:57.531Z,-6.69
2022-12-03T20:32:28.955Z,-7.09
2022-12-03T20:35:00.147Z,-7.35
2022-12-03T20:37:29.133Z,-7.54
2022-12-03T20:39:58.157Z,-7.69
2022-12-03T20:42:28.367Z,-7.76
2022-12-03T20:44:58.524Z,-7.94
2022-12-03T20:47:28.469Z,-8.10
2022-12-03T20:49:57.729Z,-8.21
2022-12-03T20:52:27.576Z,-8.24
2022-12-03T20:54:58.154Z,-8.27
2022-12-03T20:57:30.147Z,-8.15
2022-12-03T21:00:13.210Z,-8.22
2022-12-03T21:02:42.375Z,-8.02
2022-12-03T21:05:15.896Z,-7.74
2022-12-03T21:07:44.797Z,-7.58
2022-12-03T21:10:34.392Z,-7.46
2022-12-03T21:13:03.155Z,-7.38
2022-12-03T21:15:38.242Z,-7.26
2022-12-03T21:18:07.311Z,-7.18
2022-12-03T21:20:44.583Z,-7.09
2022-12-03T21:23:16.844Z,-7.16
2022-12-03T21:25:45.626Z,-6.94
2022-12-03T21:28:14.435Z,-6.97
2022-12-03T21:30:59.188Z,-6.95
2022-12-03T21:33:38.254Z,-6.94
2022-12-03T21:36:15.131Z,-6.73
2022-12-03T21:38:50.272Z,-6.86
2022-12-03T21:41:20.791Z,-6.89
2022-12-03T21:43:50.173Z,-7.16
2022-12-03T21:47:12.049Z,-7.15
2022-12-03T21:49:34.123Z,-7.14
2022-12-03T21:52:03.049Z,-7.36
2022-12-03T21:54:42.449Z,-7.21
2022-12-03T21:57:18.391Z,-7.09
2022-12-03T21:59:47.091Z,-7.11
2022-12-03T22:02:17.249Z,-7.11
2022-12-03T22:04:51.368Z,-7.13
2022-12-03T22:07:21.283Z,-7.30
2022-12-03T22:09:49.965Z,-7.51
2022-12-03T22:12:18.785Z,-7.54
2022-12-03T22:14:47.508Z,-7.38
2022-12-03T22:17:17.891Z,-7.27
2022-12-03T22:19:46.674Z,-7.28
2022-12-03T22:22:15.290Z,-7.35
2022-12-03T22:24:45.920Z,-7.36
2022-12-03T22:27:15.608Z,-7.22
2022-12-03T22:29:44.407Z,-7.01
2022-12-03T22:32:13.201Z,-6.87
2022-12-03T22:34:44.629Z,-6.85
2022-12-03T22:37:16.849Z,-6.66
2022-12-03T22:39:45.739Z,-6.85
2022-12-03T22:42:14.392Z,-6.78
2022-12-03T22:44:43.181Z,-6.74
2022-12-03T22:47:12.049Z,-6.65
2022-12-03T22:49:40.802Z,-6.73
2022-12-03T22:52:11.000Z,-6.65
2022-12-03T22:54:40.162Z,-6.52
2022-12-03T22:57:11.686Z,-6.41
2022-12-03T22:59:49.060Z,-6.42
2022-12-03T23:02:18.138Z,-6.36
2022-12-03T23:04:49.667Z,-6.24
2022-12-03T23:07:22.433Z,-6.11
2022-12-03T23:09:51.856Z,-6.12
2022-12-03T23:12:20.499Z,-6.18
2022-12-03T23:14:49.056Z,-6.09
2022-12-03T23:17:17.749Z,-6.03
2022-12-03T23:19:46.369Z,-6.11
2022-12-03T23:22:14.927Z,-6.09
2022-12-03T23:24:45.082Z,-6.01
2022-12-03T23:27:14.169Z,-6.03
2022-12-03T23:29:42.699Z,-5.91
2022-12-03T23:32:11.482Z,-5.92
2022-12-03T23:34:39.961Z,-5.89
2022-12-03T23:37:08.653Z,-5.88
2022-12-03T23:39:37.201Z,-5.77
2022-12-03T23:42:07.246Z,-5.75
2022-12-03T23:44:35.720Z,-5.83
2022-12-03T23:47:04.452Z,-5.80
2022-12-03T23:49:32.978Z,-5.72
2022-12-03T23:52:01.602Z,-5.64
2022-12-03T23:54:30.168Z,-5.60
2022-12-03T23:56:58.755Z,-5.76
2022-12-03T23:59:28.697Z,-5.82
